Time;durP1;ratioP1;P1;durP2;ratioP2;P2;SDS_P1;SDS_P2;PMS_P1;PMS_P2;Temp;Humidity;BMP_temperature;BMP_pressure;BME280_temperature;BME280_humidity;BME280_pressure;Samples;Min_cycle;Max_cycle;Signal;HPM_P1;HPM_P2
2023/09/27 00:01:52;;;;;;;11.00;2.83;;;;;;;;;;5040510;28;20025;-41
2023/09/27 00:04:19;;;;;;;12.88;2.88;;;;;;;;;;5051043;28;20035;-41
2023/09/27 00:06:46;;;;;;;15.88;2.90;;;;;;;;;;5040343;28;20614;-42
2023/09/27 00:09:13;;;;;;;19.60;3.10;;;;;;;;;;5041902;28;20030;-42
2023/09/27 00:11:40;;;;;;;10.98;2.60;;;;;;;;;;5032031;28;20047;-42
2023/09/27 00:14:07;;;;;;;23.13;2.90;;;;;;;;;;5036000;28;20060;-42
2023/09/27 00:16:35;;;;;;;17.40;3.03;;;;;;;;;;5032942;28;20049;-42
2023/09/27 00:19:04;;;;;;;14.85;3.25;;;;;;;;;;5042069;28;20395;-40
2023/09/27 00:21:32;;;;;;;13.75;2.97;;;;;;;;;;5050395;28;20068;-42
2023/09/27 00:23:59;;;;;;;15.93;3.60;;;;;;;;;;5046320;28;20029;-42
2023/09/27 00:26:26;;;;;;;27.35;5.13;;;;;;;;;;5050922;28;20479;-41
2023/09/27 00:28:53;;;;;;;39.03;6.40;;;;;;;;;;5038227;28;20052;-42
2023/09/27 00:31:20;;;;;;;33.78;6.47;;;;;;;;;;5050851;28;20495;-42
2023/09/27 00:33:47;;;;;;;33.50;7.90;;;;;;;;;;5051305;28;20029;-40
2023/09/27 00:36:14;;;;;;;44.33;7.80;;;;;;;;;;5047979;28;20025;-41
2023/09/27 00:38:41;;;;;;;33.05;6.85;;;;;;;;;;5050998;28;20063;-40
2023/09/27 00:41:09;;;;;;;27.52;6.30;;;;;;;;;;5047816;28;20083;-41
2023/09/27 00:43:37;;;;;;;31.65;6.97;;;;;;;;;;5050525;28;20036;-40
2023/09/27 00:46:05;;;;;;;29.60;5.80;;;;;;;;;;5050587;28;20048;-39
2023/09/27 00:48:33;;;;;;;35.63;6.82;;;;;;;;;;5050945;28;20025;-39
2023/09/27 00:51:01;;;;;;;24.48;5.70;;;;;;;;;;5045840;28;20045;-39
2023/09/27 00:53:30;;;;;;;35.78;6.18;;;;;;;;;;5042714;28;20040;-39
2023/09/27 00:55:57;;;;;;;25.52;5.20;;;;;;;;;;5048335;28;20041;-38
2023/09/27 00:58:25;;;;;;;27.58;6.20;;;;;;;;;;5050657;28;20041;-40
2023/09/27 01:00:53;;;;;;;25.98;5.95;;;;;;;;;;5050942;28;20494;-39
2023/09/27 01:03:20;;;;;;;23.15;5.10;;;;;;;;;;5041361;28;20033;-42
2023/09/27 01:05:47;;;;;;;24.95;5.57;;;;;;;;;;5046453;28;20041;-41
2023/09/27 01:08:14;;;;;;;24.75;5.43;;;;;;;;;;5050038;28;20037;-38
2023/09/27 01:10:41;;;;;;;25.27;5.65;;;;;;;;;;5041039;28;20037;-40
2023/09/27 01:13:08;;;;;;;27.55;5.32;;;;;;;;;;5042571;28;20059;-39
2023/09/27 01:15:35;;;;;;;27.85;6.00;;;;;;;;;;5037570;28;20155;-41
2023/09/27 01:18:03;;;;;;;28.83;5.82;;;;;;;;;;5060801;28;20100;-40
2023/09/27 01:20:30;;;;;;;27.25;5.20;;;;;;;;;;5050773;28;20036;-41
2023/09/27 01:23:01;;;;;;;24.30;4.75;;;;;;;;;;5050221;28;20616;-40
2023/09/27 01:25:29;;;;;;;24.35;5.40;;;;;;;;;;5037113;28;20029;-40
2023/09/27 01:28:00;;;;;;;26.02;5.22;;;;;;;;;;5035973;28;20036;-40
2023/09/27 01:30:33;;;;;;;33.38;5.00;;;;;;;;;;5036800;28;20041;-40
2023/09/27 01:33:06;;;;;;;28.63;4.93;;;;;;;;;;5050379;28;20025;-39
2023/09/27 01:35:40;;;;;;;22.13;5.22;;;;;;;;;;5050616;28;20068;-40
2023/09/27 01:38:08;;;;;;;24.08;5.40;;;;;;;;;;5050116;28;20029;-39
2023/09/27 01:40:37;;;;;;;39.38;5.80;;;;;;;;;;5038817;28;20029;-40
2023/09/27 01:43:05;;;;;;;23.95;5.00;;;;;;;;;;5042841;28;20033;-39
2023/09/27 01:45:34;;;;;;;27.25;5.07;;;;;;;;;;5050272;28;20033;-40
2023/09/27 01:48:02;;;;;;;30.38;5.20;;;;;;;;;;5049692;28;20483;-39
2023/09/27 01:50:32;;;;;;;19.60;5.45;;;;;;;;;;5044207;28;20041;-39
2023/09/27 01:52:59;;;;;;;24.35;4.80;;;;;;;;;;5044473;28;20675;-39
2023/09/27 01:55:26;;;;;;;20.67;5.00;;;;;;;;;;5044017;28;20037;-40
2023/09/27 01:57:53;;;;;;;19.92;4.30;;;;;;;;;;5044748;28;20045;-41
2023/09/27 02:00:21;;;;;;;23.65;4.95;;;;;;;;;;5051335;28;20027;-40
2023/09/27 02:02:51;;;;;;;24.00;4.90;;;;;;;;;;5055885;28;20032;-39
2023/09/27 02:05:19;;;;;;;18.40;4.85;;;;;;;;;;5056592;28;20029;-40
2023/09/27 02:07:46;;;;;;;26.10;4.70;;;;;;;;;;5053991;28;20080;-40
2023/09/27 02:10:13;;;;;;;24.35;5.07;;;;;;;;;;5053722;28;20029;-41
2023/09/27 02:12:40;;;;;;;23.73;4.72;;;;;;;;;;5052889;28;20503;-40
2023/09/27 02:15:08;;;;;;;15.88;4.15;;;;;;;;;;5053012;28;20029;-40
2023/09/27 02:17:36;;;;;;;16.40;4.07;;;;;;;;;;5052798;28;20483;-39
2023/09/27 02:20:07;;;;;;;22.88;4.15;;;;;;;;;;5052936;28;20394;-41
2023/09/27 02:22:38;;;;;;;20.85;4.60;;;;;;;;;;5053213;28;20091;-41
2023/09/27 02:25:08;;;;;;;23.60;4.10;;;;;;;;;;5053099;28;20028;-41
2023/09/27 02:27:35;;;;;;;17.67;4.07;;;;;;;;;;5052885;28;20033;-42
2023/09/27 02:30:03;;;;;;;13.00;3.85;;;;;;;;;;5052844;28;20124;-43
2023/09/27 02:32:30;;;;;;;14.35;4.00;;;;;;;;;;5053084;28;20100;-42
2023/09/27 02:34:57;;;;;;;17.65;3.90;;;;;;;;;;5052833;28;20074;-42
2023/09/27 02:37:25;;;;;;;18.92;3.85;;;;;;;;;;5052750;28;20029;-45
2023/09/27 02:39:52;;;;;;;17.27;4.18;;;;;;;;;;5052853;28;20131;-42
2023/09/27 02:42:20;;;;;;;11.70;3.65;;;;;;;;;;5052682;28;20060;-42
2023/09/27 02:44:47;;;;;;;16.80;3.33;;;;;;;;;;5049606;28;20029;-42
2023/09/27 02:47:14;;;;;;;16.75;3.80;;;;;;;;;;5052603;28;20503;-42
2023/09/27 02:49:41;;;;;;;14.05;3.25;;;;;;;;;;5052591;28;20135;-43
2023/09/27 02:52:09;;;;;;;18.05;3.78;;;;;;;;;;5052738;28;20024;-42
2023/09/27 02:54:37;;;;;;;14.73;3.42;;;;;;;;;;5052602;28;20534;-42
2023/09/27 02:57:04;;;;;;;13.50;3.10;;;;;;;;;;5052437;28;20078;-41
2023/09/27 02:59:32;;;;;;;13.75;3.28;;;;;;;;;;5053232;28;20048;-41
2023/09/27 03:01:59;;;;;;;11.73;3.10;;;;;;;;;;5053173;28;20021;-41
2023/09/27 03:04:26;;;;;;;15.27;3.03;;;;;;;;;;5053072;28;20029;-42
2023/09/27 03:06:54;;;;;;;13.20;3.03;;;;;;;;;;5052648;28;20029;-41
2023/09/27 03:09:21;;;;;;;11.40;3.55;;;;;;;;;;5052767;28;20243;-41
2023/09/27 03:11:48;;;;;;;12.15;2.88;;;;;;;;;;5052954;28;20028;-41
2023/09/27 03:14:15;;;;;;;11.13;3.38;;;;;;;;;;5052809;28;20037;-42
2023/09/27 03:16:42;;;;;;;12.48;3.28;;;;;;;;;;5052653;28;20044;-41
2023/09/27 03:19:09;;;;;;;14.63;3.58;;;;;;;;;;5052578;28;20040;-42
2023/09/27 03:21:36;;;;;;;12.45;3.13;;;;;;;;;;5034819;28;20033;-41
2023/09/27 03:24:03;;;;;;;9.15;2.97;;;;;;;;;;5052796;28;20036;-41
2023/09/27 03:26:30;;;;;;;7.95;2.92;;;;;;;;;;5052447;28;20503;-40
2023/09/27 03:28:57;;;;;;;9.43;3.25;;;;;;;;;;5052681;28;20047;-41
2023/09/27 03:31:24;;;;;;;8.38;2.72;;;;;;;;;;5052517;28;20518;-41
2023/09/27 03:33:51;;;;;;;12.82;2.78;;;;;;;;;;5052387;28;20439;-41
2023/09/27 03:36:18;;;;;;;7.28;2.10;;;;;;;;;;5052493;28;20025;-41
2023/09/27 03:38:46;;;;;;;8.93;2.88;;;;;;;;;;5034490;28;20055;-41
2023/09/27 03:41:13;;;;;;;8.68;2.40;;;;;;;;;;5052419;28;20040;-41
2023/09/27 03:43:40;;;;;;;7.53;2.63;;;;;;;;;;5052237;28;20029;-42
2023/09/27 03:46:07;;;;;;;11.00;2.75;;;;;;;;;;5052149;28;20514;-42
2023/09/27 03:48:35;;;;;;;6.35;2.20;;;;;;;;;;5051936;28;20026;-42
2023/09/27 03:51:02;;;;;;;8.73;2.13;;;;;;;;;;5051978;28;20094;-42
2023/09/27 03:53:29;;;;;;;7.25;2.13;;;;;;;;;;5051998;28;20040;-42
2023/09/27 03:55:56;;;;;;;6.25;1.92;;;;;;;;;;5051992;28;20037;-42
2023/09/27 03:58:23;;;;;;;6.82;2.20;;;;;;;;;;5052072;28;20021;-41
2023/09/27 04:00:50;;;;;;;7.10;2.08;;;;;;;;;;5052011;28;20029;-41
2023/09/27 04:03:18;;;;;;;7.25;2.55;;;;;;;;;;5052046;28;20024;-43
2023/09/27 04:05:44;;;;;;;8.88;2.55;;;;;;;;;;5051880;28;20037;-42
2023/09/27 04:08:11;;;;;;;8.68;2.35;;;;;;;;;;5051735;28;20025;-42
2023/09/27 04:10:38;;;;;;;5.57;2.08;;;;;;;;;;5051876;28;20033;-42
2023/09/27 04:13:05;;;;;;;4.97;1.88;;;;;;;;;;5051712;28;20560;-42
2023/09/27 04:15:34;;;;;;;6.97;2.08;;;;;;;;;;5051626;28;20533;-42
2023/09/27 04:18:01;;;;;;;9.32;2.22;;;;;;;;;;5050934;28;20043;-42
2023/09/27 04:20:28;;;;;;;5.55;1.83;;;;;;;;;;5051719;28;20071;-42
2023/09/27 04:22:55;;;;;;;8.27;1.83;;;;;;;;;;5051716;28;20033;-43
2023/09/27 04:25:22;;;;;;;7.70;1.90;;;;;;;;;;5051579;28;20033;-42
2023/09/27 04:27:50;;;;;;;6.43;2.03;;;;;;;;;;5051451;28;20044;-42
2023/09/27 04:30:22;;;;;;;4.25;1.90;;;;;;;;;;5051488;28;20487;-42
2023/09/27 04:32:53;;;;;;;5.97;1.88;;;;;;;;;;5051412;28;20372;-42
2023/09/27 04:35:20;;;;;;;5.35;2.10;;;;;;;;;;5051332;28;20072;-42
2023/09/27 04:37:48;;;;;;;6.28;1.90;;;;;;;;;;5051180;28;20058;-42
2023/09/27 04:40:15;;;;;;;6.22;2.00;;;;;;;;;;5051473;28;20100;-44
2023/09/27 04:42:43;;;;;;;5.13;1.88;;;;;;;;;;5051384;28;20487;-42
2023/09/27 04:45:11;;;;;;;6.55;2.20;;;;;;;;;;5051576;28;20095;-42
2023/09/27 04:47:39;;;;;;;7.03;1.70;;;;;;;;;;5051362;28;20104;-41
2023/09/27 04:50:10;;;;;;;5.30;1.60;;;;;;;;;;5051250;28;20048;-42
2023/09/27 04:52:37;;;;;;;6.53;2.00;;;;;;;;;;5051228;28;20029;-42
2023/09/27 04:55:05;;;;;;;5.00;1.50;;;;;;;;;;5051270;28;20390;-42
2023/09/27 04:57:32;;;;;;;7.72;1.88;;;;;;;;;;5051273;28;20483;-42
2023/09/27 04:59:59;;;;;;;7.05;1.75;;;;;;;;;;5051210;28;20040;-42
2023/09/27 05:02:27;;;;;;;6.30;1.35;;;;;;;;;;5051089;28;20029;-42
2023/09/27 05:04:54;;;;;;;4.45;1.50;;;;;;;;;;5051189;28;20037;-42
2023/09/27 05:07:21;;;;;;;4.13;1.48;;;;;;;;;;5051255;28;20037;-41
2023/09/27 05:09:48;;;;;;;4.63;1.48;;;;;;;;;;5050974;28;20592;-41
2023/09/27 05:12:15;;;;;;;2.88;1.35;;;;;;;;;;5051262;28;20079;-42
2023/09/27 05:14:43;;;;;;;3.80;1.58;;;;;;;;;;5051238;28;20029;-42
2023/09/27 05:17:10;;;;;;;6.30;1.77;;;;;;;;;;5068689;28;20056;-41
2023/09/27 05:19:37;;;;;;;4.55;1.70;;;;;;;;;;5071014;28;20414;-41
2023/09/27 05:22:04;;;;;;;4.22;1.42;;;;;;;;;;5071266;28;20065;-41
2023/09/27 05:24:38;;;;;;;4.75;1.33;;;;;;;;;;5071118;28;20044;-41
2023/09/27 05:27:07;;;;;;;3.75;1.50;;;;;;;;;;5070929;28;20474;-41
2023/09/27 05:29:34;;;;;;;3.22;1.20;;;;;;;;;;5071884;28;20078;-41
2023/09/27 05:32:01;;;;;;;4.18;1.30;;;;;;;;;;5074833;28;20049;-41
2023/09/27 05:34:29;;;;;;;6.15;1.42;;;;;;;;;;5074579;28;20556;-41
2023/09/27 05:36:57;;;;;;;2.50;1.33;;;;;;;;;;5074404;28;20037;-42
2023/09/27 05:39:24;;;;;;;5.10;1.50;;;;;;;;;;5074662;28;20035;-42
2023/09/27 05:41:51;;;;;;;3.22;1.10;;;;;;;;;;5074682;28;20075;-42
2023/09/27 05:44:18;;;;;;;5.20;1.40;;;;;;;;;;5074636;28;20043;-42
2023/09/27 05:46:45;;;;;;;5.72;1.50;;;;;;;;;;5074522;28;20054;-42
2023/09/27 05:49:14;;;;;;;2.40;1.13;;;;;;;;;;5074412;28;20031;-42
2023/09/27 05:51:43;;;;;;;3.08;1.20;;;;;;;;;;5074316;28;20127;-42
2023/09/27 05:54:10;;;;;;;4.68;1.42;;;;;;;;;;5074263;28;20032;-41
2023/09/27 05:56:37;;;;;;;3.58;1.52;;;;;;;;;;5074320;28;20035;-40
2023/09/27 05:59:11;;;;;;;2.90;1.38;;;;;;;;;;5074553;28;20080;-40
2023/09/27 06:01:39;;;;;;;2.88;1.02;;;;;;;;;;5064807;28;20083;-42
2023/09/27 06:04:06;;;;;;;4.90;1.50;;;;;;;;;;5054148;28;20033;-42
2023/09/27 06:06:34;;;;;;;3.47;1.30;;;;;;;;;;5054216;28;20029;-41
2023/09/27 06:09:01;;;;;;;3.30;1.35;;;;;;;;;;5054071;28;20477;-42
2023/09/27 06:11:28;;;;;;;5.10;1.20;;;;;;;;;;5054144;28;20154;-42
2023/09/27 06:13:55;;;;;;;3.80;1.30;;;;;;;;;;5054092;28;20020;-42
2023/09/27 06:16:22;;;;;;;2.03;0.93;;;;;;;;;;5035825;28;20399;-42
2023/09/27 06:18:49;;;;;;;2.53;1.00;;;;;;;;;;5053946;28;20547;-42
2023/09/27 06:21:16;;;;;;;1.77;0.88;;;;;;;;;;5054017;28;20380;-42
2023/09/27 06:23:43;;;;;;;2.50;1.17;;;;;;;;;;5057001;28;20033;-42
2023/09/27 06:26:10;;;;;;;2.17;1.05;;;;;;;;;;5073940;28;20016;-42
2023/09/27 06:28:38;;;;;;;4.40;1.27;;;;;;;;;;5073785;28;20029;-41
2023/09/27 06:31:08;;;;;;;3.17;0.98;;;;;;;;;;5073577;28;20041;-41
2023/09/27 06:33:39;;;;;;;2.80;0.98;;;;;;;;;;5073839;28;20120;-42
2023/09/27 06:36:09;;;;;;;2.47;1.10;;;;;;;;;;5073652;28;20035;-42
2023/09/27 06:38:36;;;;;;;4.65;1.23;;;;;;;;;;5073533;28;20068;-42
2023/09/27 06:41:03;;;;;;;3.25;1.00;;;;;;;;;;5072957;28;20068;-42
2023/09/27 06:43:31;;;;;;;2.45;1.10;;;;;;;;;;5073561;28;20028;-41
2023/09/27 06:46:01;;;;;;;3.03;0.90;;;;;;;;;;5064845;28;20024;-42
2023/09/27 06:48:28;;;;;;;2.20;1.10;;;;;;;;;;5053271;28;20033;-42
2023/09/27 06:50:55;;;;;;;2.83;1.00;;;;;;;;;;5053157;28;20049;-42
2023/09/27 06:53:22;;;;;;;2.72;0.95;;;;;;;;;;5053248;28;20134;-43
2023/09/27 06:55:53;;;;;;;2.15;0.80;;;;;;;;;;5053337;28;20017;-42
2023/09/27 06:58:25;;;;;;;2.30;0.90;;;;;;;;;;5053079;28;20163;-41
2023/09/27 07:00:54;;;;;;;3.03;0.90;;;;;;;;;;5053163;28;20041;-42
2023/09/27 07:03:28;;;;;;;2.05;0.95;;;;;;;;;;5053033;28;20029;-42
2023/09/27 07:06:01;;;;;;;2.85;1.00;;;;;;;;;;5052663;28;20112;-41
2023/09/27 07:08:28;;;;;;;2.35;0.80;;;;;;;;;;5052509;28;20099;-41
2023/09/27 07:10:55;;;;;;;1.95;0.90;;;;;;;;;;5052936;28;20041;-42
2023/09/27 07:13:22;;;;;;;3.05;0.90;;;;;;;;;;5052978;28;20036;-42
2023/09/27 07:15:50;;;;;;;1.80;1.00;;;;;;;;;;5052782;28;20052;-41
2023/09/27 07:18:17;;;;;;;1.92;0.70;;;;;;;;;;5052665;28;20036;-42
2023/09/27 07:20:45;;;;;;;3.10;0.75;;;;;;;;;;5052916;28;20391;-42
2023/09/27 07:23:15;;;;;;;1.58;0.70;;;;;;;;;;5052667;28;20040;-42
2023/09/27 07:25:45;;;;;;;1.67;0.80;;;;;;;;;;5052679;28;20438;-42
2023/09/27 07:28:12;;;;;;;1.65;0.90;;;;;;;;;;5052680;28;20044;-42
2023/09/27 07:30:39;;;;;;;2.45;0.80;;;;;;;;;;5052543;28;20036;-43
2023/09/27 07:33:09;;;;;;;2.22;0.80;;;;;;;;;;5052614;28;20032;-42
2023/09/27 07:35:41;;;;;;;1.63;0.80;;;;;;;;;;5052432;28;20056;-42
2023/09/27 07:38:10;;;;;;;1.85;0.70;;;;;;;;;;5052326;28;20055;-42
2023/09/27 07:40:38;;;;;;;2.55;0.77;;;;;;;;;;5052423;28;20407;-42
2023/09/27 07:43:05;;;;;;;2.85;0.88;;;;;;;;;;5052337;28;20049;-42
2023/09/27 07:45:33;;;;;;;2.50;0.70;;;;;;;;;;5052371;28;20437;-42
2023/09/27 07:48:00;;;;;;;3.03;0.70;;;;;;;;;;5052312;28;20059;-42
2023/09/27 07:50:31;;;;;;;0.82;0.57;;;;;;;;;;5052135;28;20075;-41
2023/09/27 07:53:06;;;;;;;1.60;0.80;;;;;;;;;;5051288;28;20037;-42
2023/09/27 07:55:33;;;;;;;3.78;0.73;;;;;;;;;;5052226;28;20029;-44
2023/09/27 07:58:01;;;;;;;2.38;0.73;;;;;;;;;;5051971;28;20038;-42
2023/09/27 08:00:28;;;;;;;2.10;0.88;;;;;;;;;;5052013;28;20124;-42
2023/09/27 08:03:00;;;;;;;1.48;0.57;;;;;;;;;;5052164;28;20490;-42
2023/09/27 08:05:27;;;;;;;1.77;0.75;;;;;;;;;;5052092;28;20036;-41
2023/09/27 08:07:54;;;;;;;2.03;0.98;;;;;;;;;;5051913;28;20025;-42
2023/09/27 08:10:22;;;;;;;0.90;0.60;;;;;;;;;;5051960;28;20033;-41
2023/09/27 08:12:49;;;;;;;2.08;0.75;;;;;;;;;;5051691;28;20098;-42
2023/09/27 08:15:17;;;;;;;2.38;0.80;;;;;;;;;;5051605;28;20399;-41
2023/09/27 08:17:46;;;;;;;1.33;0.50;;;;;;;;;;5051647;28;20037;-42
2023/09/27 08:20:12;;;;;;;1.90;0.70;;;;;;;;;;5051759;28;20032;-42
2023/09/27 08:22:40;;;;;;;1.48;0.70;;;;;;;;;;5051991;28;20037;-43
2023/09/27 08:25:14;;;;;;;0.85;0.60;;;;;;;;;;5051260;28;20083;-42
2023/09/27 08:27:41;;;;;;;1.13;0.60;;;;;;;;;;5033603;28;20114;-42
2023/09/27 08:30:09;;;;;;;2.10;0.98;;;;;;;;;;5051289;28;20041;-42
2023/09/27 08:32:38;;;;;;;0.63;0.52;;;;;;;;;;5051429;28;20040;-42
2023/09/27 08:35:05;;;;;;;2.70;0.60;;;;;;;;;;5051424;28;20040;-42
2023/09/27 08:37:32;;;;;;;1.10;0.57;;;;;;;;;;5051543;28;20099;-41
2023/09/27 08:39:59;;;;;;;1.17;0.65;;;;;;;;;;5051620;28;20025;-43
2023/09/27 08:42:27;;;;;;;1.10;0.70;;;;;;;;;;5051631;28;20120;-42
2023/09/27 08:44:54;;;;;;;2.08;0.60;;;;;;;;;;5051462;28;20032;-42
2023/09/27 08:47:21;;;;;;;2.17;0.80;;;;;;;;;;5051259;28;20048;-41
2023/09/27 08:49:51;;;;;;;1.80;0.70;;;;;;;;;;5051219;28;20109;-41
2023/09/27 08:52:18;;;;;;;1.48;0.82;;;;;;;;;;5051145;28;20028;-41
2023/09/27 08:54:46;;;;;;;1.60;0.52;;;;;;;;;;5051325;28;20462;-40
2023/09/27 08:57:13;;;;;;;2.15;0.55;;;;;;;;;;5051350;28;20071;-42
2023/09/27 08:59:40;;;;;;;1.10;0.70;;;;;;;;;;5051335;28;20040;-40
2023/09/27 09:02:08;;;;;;;2.55;0.40;;;;;;;;;;5051036;28;20520;-40
2023/09/27 09:04:35;;;;;;;1.77;0.80;;;;;;;;;;5052240;28;20514;-41
2023/09/27 09:07:02;;;;;;;1.65;0.70;;;;;;;;;;5055370;28;20021;-40
2023/09/27 09:09:30;;;;;;;1.77;0.60;;;;;;;;;;5055271;28;20064;-42
2023/09/27 09:12:01;;;;;;;1.58;0.90;;;;;;;;;;5055010;28;20483;-42
2023/09/27 09:14:47;;;;;;;1.70;0.60;;;;;;;;;;5055223;28;20475;-43
2023/09/27 09:17:18;;;;;;;1.30;0.60;;;;;;;;;;5054882;28;20091;-42
2023/09/27 09:19:47;;;;;;;0.82;0.40;;;;;;;;;;5055068;28;20047;-42
2023/09/27 09:22:14;;;;;;;1.42;0.60;;;;;;;;;;5053503;28;20118;-42
2023/09/27 09:24:43;;;;;;;1.70;0.50;;;;;;;;;;5054462;28;20036;-40
2023/09/27 09:27:16;;;;;;;1.65;0.60;;;;;;;;;;5054725;28;20452;-44
2023/09/27 09:29:53;;;;;;;1.55;0.50;;;;;;;;;;5053676;28;20032;-40
2023/09/27 09:32:25;;;;;;;2.17;0.70;;;;;;;;;;5051580;28;20029;-41
2023/09/27 09:34:55;;;;;;;2.00;0.73;;;;;;;;;;5053705;28;20043;-42
2023/09/27 09:37:26;;;;;;;3.70;0.68;;;;;;;;;;5053432;28;20036;-42
2023/09/27 09:39:54;;;;;;;5.32;0.50;;;;;;;;;;5053816;28;20040;-41
2023/09/27 09:42:34;;;;;;;5.90;0.70;;;;;;;;;;5054448;28;20037;-41
2023/09/27 09:45:01;;;;;;;2.22;0.70;;;;;;;;;;5054750;28;20079;-40
2023/09/27 09:47:32;;;;;;;2.28;0.57;;;;;;;;;;5054658;28;20040;-40
2023/09/27 09:49:59;;;;;;;4.63;1.00;;;;;;;;;;5054631;28;20082;-40
2023/09/27 09:52:28;;;;;;;4.50;0.57;;;;;;;;;;5054642;28;20101;-41
2023/09/27 09:54:59;;;;;;;3.90;0.55;;;;;;;;;;5054468;28;20064;-40
2023/09/27 09:57:35;;;;;;;5.88;0.80;;;;;;;;;;5054328;28;20029;-41
2023/09/27 10:00:17;;;;;;;5.95;0.88;;;;;;;;;;5054354;28;20037;-40
2023/09/27 10:02:49;;;;;;;1.90;0.70;;;;;;;;;;5054298;28;20158;-41
2023/09/27 10:05:17;;;;;;;;;;;;;;;;;;5054633;28;20478;-40
2023/09/27 10:07:45;;;;;;;3.47;0.70;;;;;;;;;;5054313;28;19996;-41
2023/09/27 10:10:15;;;;;;;3.38;0.80;;;;;;;;;;5054120;28;20064;-40
2023/09/27 10:12:46;;;;;;;4.30;0.57;;;;;;;;;;5054397;28;20082;-40
2023/09/27 10:15:14;;;;;;;4.03;0.70;;;;;;;;;;5053962;28;20033;-41
2023/09/27 10:17:41;;;;;;;6.13;0.90;;;;;;;;;;5052977;28;20040;-40
2023/09/27 10:20:12;;;;;;;5.50;0.77;;;;;;;;;;5054076;28;20055;-41
2023/09/27 10:22:43;;;;;;;3.75;0.80;;;;;;;;;;5053906;28;20154;-40
2023/09/27 10:25:30;;;;;;;3.00;0.70;;;;;;;;;;5054035;28;20024;-40
2023/09/27 10:28:10;;;;;;;6.97;1.00;;;;;;;;;;5053679;28;20044;-40
2023/09/27 10:30:45;;;;;;;4.32;0.90;;;;;;;;;;5053639;28;20045;-41
2023/09/27 10:33:19;;;;;;;3.58;1.05;;;;;;;;;;5053680;28;20044;-41
2023/09/27 10:35:47;;;;;;;2.92;0.80;;;;;;;;;;5053683;28;20037;-41
2023/09/27 10:38:15;;;;;;;3.00;0.70;;;;;;;;;;5053617;28;20021;-41
2023/09/27 10:40:46;;;;;;;3.70;0.80;;;;;;;;;;5053597;28;20033;-40
2023/09/27 10:43:40;;;;;;;3.20;0.90;;;;;;;;;;5053563;28;20437;-41
2023/09/27 10:46:08;;;;;;;6.68;0.98;;;;;;;;;;5051307;28;20052;-41
2023/09/27 10:48:42;;;;;;;4.88;0.82;;;;;;;;;;5053656;28;20522;-41
2023/09/27 10:51:09;;;;;;;6.30;1.08;;;;;;;;;;5053306;28;20047;-40
2023/09/27 10:53:36;;;;;;;2.70;0.80;;;;;;;;;;5053482;28;20445;-41
2023/09/27 10:56:04;;;;;;;4.25;0.80;;;;;;;;;;5053398;28;20076;-41
2023/09/27 10:58:31;;;;;;;6.32;1.00;;;;;;;;;;5053396;28;20032;-40
2023/09/27 11:01:01;;;;;;;5.30;0.93;;;;;;;;;;5053387;28;20060;-40
2023/09/27 11:03:33;;;;;;;4.45;0.88;;;;;;;;;;5052512;28;20044;-42
2023/09/27 11:06:10;;;;;;;2.33;0.83;;;;;;;;;;5050570;28;20116;-41
2023/09/27 11:08:37;;;;;;;2.75;0.68;;;;;;;;;;5053133;28;20037;-41
2023/09/27 11:11:07;;;;;;;5.05;1.00;;;;;;;;;;5053059;28;20033;-41
2023/09/27 11:13:35;;;;;;;8.23;1.92;;;;;;;;;;5053116;28;20028;-42
2023/09/27 11:16:18;;;;;;;5.65;1.08;;;;;;;;;;5052801;28;20082;-42
2023/09/27 11:18:46;;;;;;;9.85;1.30;;;;;;;;;;5052806;28;20033;-41
2023/09/27 11:21:13;;;;;;;6.32;1.17;;;;;;;;;;5052903;28;20151;-41
2023/09/27 11:23:53;;;;;;;5.93;1.35;;;;;;;;;;5051906;28;20021;-40
2023/09/27 11:26:20;;;;;;;5.15;0.90;;;;;;;;;;5051984;28;20036;-41
2023/09/27 11:28:56;;;;;;;8.68;1.17;;;;;;;;;;5051961;28;20025;-41
2023/09/27 11:31:24;;;;;;;4.57;1.20;;;;;;;;;;5049182;28;20049;-40
2023/09/27 11:33:51;;;;;;;8.68;1.27;;;;;;;;;;5043257;28;20028;-40
2023/09/27 11:36:18;;;;;;;6.80;1.02;;;;;;;;;;5044915;28;20590;-42
2023/09/27 11:38:51;;;;;;;8.88;1.35;;;;;;;;;;5045756;28;20053;-40
2023/09/27 11:41:21;;;;;;;6.95;1.20;;;;;;;;;;5033563;28;20151;-42
2023/09/27 11:43:48;;;;;;;4.93;1.20;;;;;;;;;;5049860;28;20577;-39
2023/09/27 11:46:27;;;;;;;6.82;1.58;;;;;;;;;;5046816;28;20044;-48
2023/09/27 11:48:54;;;;;;;10.18;1.40;;;;;;;;;;5050011;28;20032;-48
2023/09/27 11:51:23;;;;;;;6.25;1.23;;;;;;;;;;5051107;28;20106;-42
2023/09/27 11:53:50;;;;;;;5.22;1.23;;;;;;;;;;5051359;28;20036;-44
2023/09/27 11:56:17;;;;;;;8.05;1.20;;;;;;;;;;5047723;28;20120;-43
2023/09/27 11:58:44;;;;;;;6.45;1.10;;;;;;;;;;5047185;28;20029;-48
2023/09/27 12:01:11;;;;;;;6.82;1.25;;;;;;;;;;5051376;28;20548;-49
2023/09/27 12:03:38;;;;;;;4.53;0.98;;;;;;;;;;5051552;28;20025;-46
2023/09/27 12:06:07;;;;;;;9.40;1.42;;;;;;;;;;5048948;28;20102;-49
2023/09/27 12:08:34;;;;;;;10.07;1.10;;;;;;;;;;5048915;28;20032;-50
2023/09/27 12:11:02;;;;;;;10.20;1.40;;;;;;;;;;5048167;28;20033;-53
2023/09/27 12:13:30;;;;;;;7.00;1.40;;;;;;;;;;5050382;28;20124;-47
2023/09/27 12:15:57;;;;;;;7.10;1.10;;;;;;;;;;5049918;28;20148;-48
2023/09/27 12:18:24;;;;;;;3.63;1.05;;;;;;;;;;5050194;28;20056;-48
2023/09/27 12:20:51;;;;;;;5.60;1.30;;;;;;;;;;5047041;28;20037;-51
2023/09/27 12:23:18;;;;;;;6.43;1.02;;;;;;;;;;5050133;28;20037;-45
2023/09/27 12:25:45;;;;;;;6.95;1.08;;;;;;;;;;5049586;28;20387;-46
2023/09/27 12:28:12;;;;;;;4.30;1.23;;;;;;;;;;5049227;28;20090;-50
2023/09/27 12:30:39;;;;;;;4.18;1.00;;;;;;;;;;5050816;28;20482;-48
2023/09/27 12:33:06;;;;;;;8.60;1.05;;;;;;;;;;5047374;28;20449;-49
2023/09/27 12:35:33;;;;;;;7.57;0.98;;;;;;;;;;5051369;28;20071;-49
2023/09/27 12:38:06;;;;;;;6.53;1.05;;;;;;;;;;5049174;28;20021;-46
2023/09/27 12:40:36;;;;;;;7.22;1.20;;;;;;;;;;5050243;28;20036;-44
2023/09/27 12:43:04;;;;;;;8.52;1.10;;;;;;;;;;5050120;28;20063;-43
2023/09/27 12:45:32;;;;;;;8.32;1.35;;;;;;;;;;5050906;28;20033;-43
2023/09/27 12:47:59;;;;;;;6.15;1.13;;;;;;;;;;5044227;28;20052;-43
2023/09/27 12:50:26;;;;;;;4.30;1.20;;;;;;;;;;5050280;28;20505;-44
2023/09/27 12:52:57;;;;;;;3.05;0.80;;;;;;;;;;5050089;28;20048;-43
2023/09/27 12:55:24;;;;;;;5.25;0.90;;;;;;;;;;5050780;28;20087;-44
2023/09/27 12:57:51;;;;;;;6.25;1.25;;;;;;;;;;5050909;28;20021;-44
2023/09/27 13:00:19;;;;;;;7.95;0.90;;;;;;;;;;5049035;28;20032;-44
2023/09/27 13:02:46;;;;;;;6.60;0.80;;;;;;;;;;5051016;28;20560;-44
2023/09/27 13:05:13;;;;;;;7.63;0.93;;;;;;;;;;5051008;28;20063;-43
2023/09/27 13:07:41;;;;;;;3.83;1.00;;;;;;;;;;5050579;28;20061;-43
2023/09/27 13:10:08;;;;;;;6.50;1.20;;;;;;;;;;5050849;28;20492;-44
2023/09/27 13:12:37;;;;;;;8.23;1.08;;;;;;;;;;5037947;28;20098;-44
2023/09/27 13:15:04;;;;;;;5.00;1.30;;;;;;;;;;5031191;28;20057;-45
2023/09/27 13:17:31;;;;;;;2.63;0.90;;;;;;;;;;5031269;28;20033;-43
2023/09/27 13:19:58;;;;;;;5.55;1.33;;;;;;;;;;5031321;28;20033;-44
2023/09/27 13:22:25;;;;;;;6.15;1.10;;;;;;;;;;5031246;28;20053;-41
2023/09/27 13:24:52;;;;;;;3.05;0.73;;;;;;;;;;5031328;28;20029;-42
2023/09/27 13:27:19;;;;;;;6.00;1.52;;;;;;;;;;5031102;28;20025;-44
2023/09/27 13:29:46;;;;;;;4.20;0.90;;;;;;;;;;5031272;28;20025;-44
2023/09/27 13:32:13;;;;;;;6.22;1.00;;;;;;;;;;5031185;28;20048;-45
2023/09/27 13:34:40;;;;;;;4.13;0.98;;;;;;;;;;5031141;28;20033;-43
2023/09/27 13:37:07;;;;;;;5.18;0.85;;;;;;;;;;5030992;28;20049;-44
2023/09/27 13:39:34;;;;;;;4.72;1.00;;;;;;;;;;5031086;28;20061;-43
2023/09/27 13:42:01;;;;;;;2.58;1.10;;;;;;;;;;5031144;28;20026;-44
2023/09/27 13:44:28;;;;;;;4.97;1.10;;;;;;;;;;5030968;28;20032;-44
2023/09/27 13:46:55;;;;;;;4.78;1.10;;;;;;;;;;5030902;28;20442;-43
2023/09/27 13:49:22;;;;;;;4.63;1.02;;;;;;;;;;5031057;28;20026;-43
2023/09/27 13:51:49;;;;;;;6.05;0.82;;;;;;;;;;5033678;28;20053;-43
2023/09/27 13:54:16;;;;;;;7.00;1.13;;;;;;;;;;5034623;28;20034;-45
2023/09/27 13:56:43;;;;;;;2.63;0.70;;;;;;;;;;5034524;28;20034;-44
2023/09/27 13:59:10;;;;;;;6.30;1.15;;;;;;;;;;5034427;28;20415;-43
2023/09/27 14:01:37;;;;;;;4.55;1.05;;;;;;;;;;5034500;28;20043;-43
2023/09/27 14:04:04;;;;;;;8.13;1.13;;;;;;;;;;5034449;28;20476;-44
2023/09/27 14:06:31;;;;;;;3.35;0.75;;;;;;;;;;5034280;28;20072;-43
2023/09/27 14:08:58;;;;;;;4.28;0.88;;;;;;;;;;5034380;28;20056;-43
2023/09/27 14:11:25;;;;;;;2.70;0.65;;;;;;;;;;5034122;28;20083;-44
2023/09/27 14:13:52;;;;;;;3.60;0.60;;;;;;;;;;5034279;28;20484;-44
2023/09/27 14:16:20;;;;;;;4.25;0.80;;;;;;;;;;5034009;28;20494;-43
2023/09/27 14:18:47;;;;;;;4.07;1.00;;;;;;;;;;5034066;28;20052;-43
2023/09/27 14:21:14;;;;;;;2.22;0.70;;;;;;;;;;5034219;28;20482;-44
2023/09/27 14:23:42;;;;;;;4.63;0.80;;;;;;;;;;5034093;28;20557;-44
2023/09/27 14:26:09;;;;;;;7.22;1.00;;;;;;;;;;5034069;28;20025;-44
2023/09/27 14:28:36;;;;;;;6.38;0.85;;;;;;;;;;5034026;28;20495;-43
2023/09/27 14:31:03;;;;;;;2.50;0.73;;;;;;;;;;5033924;28;20033;-43
2023/09/27 14:33:30;;;;;;;5.63;1.02;;;;;;;;;;5033871;28;20061;-44
2023/09/27 14:35:59;;;;;;;6.32;0.70;;;;;;;;;;5033786;28;20078;-44
2023/09/27 14:38:28;;;;;;;2.08;0.70;;;;;;;;;;5033690;28;20041;-43
2023/09/27 14:40:55;;;;;;;5.47;0.80;;;;;;;;;;5033659;28;20060;-43
2023/09/27 14:43:22;;;;;;;4.72;0.90;;;;;;;;;;5033766;28;20838;-43
2023/09/27 14:45:49;;;;;;;4.70;0.82;;;;;;;;;;5033540;28;20038;-44
2023/09/27 14:48:16;;;;;;;6.25;0.90;;;;;;;;;;5033544;28;20036;-43